MMMY/MTY METAR and TAF weather

Enter ICAO airport designator
Station Type Date Time Source
MMMY METAR 2022/01/26 19:42 UTC NOAA

MMMY 261942Z 14006KT 2SM -DZ BR BKN005 OVC008 12/12 A3015 RMK 60015 8/6//


Station Type Date Time Source
MMMY Decoded METAR 2022/01/26 19:42 UTC NOAA

Monterrey / Gen Maria, Mexico (MMMY) 25-47N 100-06W
Jan 26, 2022 - 02:42 PM EST / 2022.01.26 1942 UTC
Wind: from the SE (140 degrees) at 7 MPH (6 KT):0
Visibility: 2 mile(s):0
Sky conditions: overcast
Weather: light drizzle; mist
Temperature: 53 F (12 C)
Dew Point: 53 F (12 C)
Relative Humidity: 100%
Pressure (altimeter): 30.15 in. Hg (1020 hPa)
ob: MMMY 261942Z 14006KT 2SM -DZ BR BKN005 OVC008 12/12 A3015 RMK 60015 8/6//
cycle: 19

Station Type Date Time Source
MMMY TAF 2022/01/26 20:08 UTC NOAA

TAF
AMD MMMY 262000Z 2620/2724 13010KT 2SM DZ BR OVC005 TX20/2620Z TN10/2712Z
FM270200 16005KT 3SM HZ OVC010
FM271000 00000KT 2SM BR OVC008
FM271600 10010KT 4SM HZ OVC020

Example: see airport list